createdAt,value
2018-09-19T00:02:02.855Z,19.02
2018-09-19T00:04:31.108Z,19.04
2018-09-19T00:06:59.213Z,19.02
2018-09-19T00:09:27.239Z,19.03
2018-09-19T00:11:55.310Z,19.02
2018-09-19T00:14:23.355Z,19.00
2018-09-19T00:16:51.393Z,18.97
2018-09-19T00:19:19.475Z,18.96
2018-09-19T00:21:47.570Z,19.00
2018-09-19T00:24:16.175Z,18.99
2018-09-19T00:26:44.215Z,19.00
2018-09-19T00:29:12.271Z,19.00
2018-09-19T00:31:40.323Z,18.98
2018-09-19T00:34:08.561Z,18.94
2018-09-19T00:36:36.572Z,18.95
2018-09-19T00:39:06.996Z,18.95
2018-09-19T00:41:35.065Z,18.93
2018-09-19T00:44:03.132Z,18.93
2018-09-19T00:46:31.163Z,18.93
2018-09-19T00:48:59.248Z,18.91
2018-09-19T00:51:27.296Z,18.88
2018-09-19T00:53:55.357Z,18.89
2018-09-19T00:56:23.424Z,18.89
2018-09-19T00:58:51.507Z,18.91
2018-09-19T01:01:19.538Z,18.91
2018-09-19T01:03:47.613Z,18.86
2018-09-19T01:06:15.738Z,18.84
2018-09-19T01:08:43.782Z,18.83
2018-09-19T01:11:11.858Z,18.82
2018-09-19T01:13:40.082Z,18.79
2018-09-19T01:16:08.096Z,18.75
2018-09-19T01:18:36.263Z,18.71
2018-09-19T01:21:04.557Z,18.70
2018-09-19T01:23:32.612Z,18.67
2018-09-19T01:26:00.659Z,18.64
2018-09-19T01:28:28.707Z,18.62
2018-09-19T01:30:56.748Z,18.57
2018-09-19T01:33:24.795Z,18.55
2018-09-19T01:35:53.020Z,18.54
2018-09-19T01:38:21.074Z,18.52
2018-09-19T01:40:49.251Z,18.51
2018-09-19T01:43:17.384Z,18.51
2018-09-19T01:45:45.512Z,18.51
2018-09-19T01:48:13.581Z,18.51
2018-09-19T01:50:41.656Z,18.51
2018-09-19T01:53:09.715Z,18.50
2018-09-19T01:55:37.752Z,18.49
2018-09-19T01:58:05.841Z,18.45
2018-09-19T02:00:33.913Z,18.41
2018-09-19T02:03:02.020Z,18.38
2018-09-19T02:05:30.097Z,18.36
2018-09-19T02:07:58.168Z,18.38
2018-09-19T02:10:26.231Z,18.36
2018-09-19T02:12:54.300Z,18.35
2018-09-19T02:15:28.641Z,18.34
2018-09-19T02:17:56.840Z,18.34
2018-09-19T02:20:24.956Z,18.28
2018-09-19T02:22:53.043Z,18.21
2018-09-19T02:25:21.047Z,18.18
2018-09-19T02:27:49.459Z,18.16
2018-09-19T02:30:17.532Z,18.14
2018-09-19T02:32:45.575Z,18.14
2018-09-19T02:35:13.698Z,18.10
2018-09-19T02:37:41.717Z,18.07
2018-09-19T02:40:09.800Z,18.07
2018-09-19T02:42:37.807Z,18.08
2018-09-19T02:45:05.883Z,18.06
2018-09-19T02:47:34.054Z,18.02
2018-09-19T02:50:02.090Z,18.02
2018-09-19T02:52:30.180Z,18.01
2018-09-19T02:54:58.220Z,18.00
2018-09-19T02:57:26.314Z,17.99
2018-09-19T02:59:54.410Z,17.95
2018-09-19T03:02:22.392Z,17.93
2018-09-19T03:04:50.433Z,17.90
2018-09-19T03:07:18.472Z,17.88
2018-09-19T03:09:46.677Z,17.83
2018-09-19T03:12:14.732Z,17.78
2018-09-19T03:14:42.815Z,17.75
2018-09-19T03:17:10.910Z,17.72
2018-09-19T03:19:39.161Z,17.69
2018-09-19T03:22:07.228Z,17.65
2018-09-19T03:24:35.280Z,17.63
2018-09-19T03:27:03.338Z,17.59
2018-09-19T03:29:31.598Z,17.56
2018-09-19T03:31:59.591Z,17.52
2018-09-19T03:34:27.665Z,17.47
2018-09-19T03:36:56.052Z,17.43
2018-09-19T03:39:24.139Z,17.41
2018-09-19T03:41:52.184Z,17.39
2018-09-19T03:44:20.228Z,17.36
2018-09-19T03:46:48.266Z,17.35
2018-09-19T03:49:16.909Z,17.33
2018-09-19T03:51:44.969Z,17.30
2018-09-19T03:54:13.004Z,17.26
2018-09-19T03:56:41.045Z,17.24
2018-09-19T03:59:09.331Z,17.20
2018-09-19T04:01:37.368Z,17.18
2018-09-19T04:04:05.545Z,17.13
2018-09-19T04:06:33.573Z,17.11
2018-09-19T04:09:01.632Z,17.07
2018-09-19T04:11:29.679Z,17.01
2018-09-19T04:13:57.732Z,16.98
2018-09-19T04:16:25.771Z,16.95
2018-09-19T04:18:54.178Z,16.95
2018-09-19T04:21:22.224Z,16.95
2018-09-19T04:23:50.270Z,16.93
2018-09-19T04:26:18.363Z,16.88
2018-09-19T04:28:46.409Z,16.88
2018-09-19T04:31:14.544Z,16.85
2018-09-19T04:33:42.864Z,16.80
2018-09-19T04:36:11.022Z,16.79
2018-09-19T04:38:39.071Z,16.79
2018-09-19T04:41:07.155Z,16.78
2018-09-19T04:43:35.208Z,16.78
2018-09-19T04:46:03.266Z,16.77
2018-09-19T04:48:31.359Z,16.76
2018-09-19T04:50:59.411Z,16.72
2018-09-19T04:53:27.451Z,16.72
2018-09-19T04:55:55.576Z,16.73
2018-09-19T04:58:23.813Z,16.72
2018-09-19T05:00:51.904Z,16.69
2018-09-19T05:03:19.973Z,16.68
2018-09-19T05:05:48.096Z,16.66
2018-09-19T05:08:16.097Z,16.68
2018-09-19T05:10:44.136Z,16.69
2018-09-19T05:13:12.381Z,16.65
2018-09-19T05:15:40.428Z,16.63
2018-09-19T05:18:08.480Z,16.62
2018-09-19T05:20:36.528Z,16.61
2018-09-19T05:23:05.024Z,16.59
2018-09-19T05:25:33.331Z,16.58
2018-09-19T05:28:01.381Z,16.59
2018-09-19T05:30:29.560Z,16.59
2018-09-19T05:32:57.780Z,16.63
2018-09-19T05:35:25.948Z,16.65
2018-09-19T05:37:54.325Z,16.67
2018-09-19T05:40:22.378Z,16.65
2018-09-19T05:42:50.442Z,16.67
2018-09-19T05:45:18.502Z,16.73
2018-09-19T05:47:46.936Z,16.72
2018-09-19T05:50:14.999Z,16.73
2018-09-19T05:52:43.133Z,16.68
2018-09-19T05:55:11.228Z,16.68
2018-09-19T05:57:39.279Z,16.67
2018-09-19T06:00:07.333Z,16.68
2018-09-19T06:02:35.371Z,16.71
2018-09-19T06:05:03.482Z,16.75
2018-09-19T06:07:31.783Z,16.79
2018-09-19T06:09:59.847Z,16.84
2018-09-19T06:12:28.020Z,16.84
2018-09-19T06:14:56.101Z,16.84
2018-09-19T06:17:24.176Z,16.85
2018-09-19T06:19:52.271Z,16.89
2018-09-19T06:22:22.454Z,16.93
2018-09-19T06:25:13.786Z,16.97
2018-09-19T06:27:41.844Z,17.03
2018-09-19T06:30:09.877Z,17.10
2018-09-19T06:32:37.964Z,17.17
2018-09-19T06:35:06.108Z,17.24
2018-09-19T06:37:34.134Z,17.30
2018-09-19T06:40:02.391Z,17.35
2018-09-19T06:42:30.347Z,17.40
2018-09-19T06:44:58.390Z,17.46
2018-09-19T06:47:26.802Z,17.54
2018-09-19T06:50:01.422Z,17.61
2018-09-19T06:52:29.640Z,17.70
2018-09-19T06:55:13.942Z,17.78
2018-09-19T06:58:01.917Z,17.86
2018-09-19T07:00:30.083Z,17.92
2018-09-19T07:02:58.117Z,18.01
2018-09-19T07:05:26.143Z,18.09
2018-09-19T07:07:54.173Z,18.18
2018-09-19T07:10:23.467Z,18.26
2018-09-19T07:12:51.670Z,18.36
2018-09-19T07:15:19.741Z,18.45
2018-09-19T07:17:47.769Z,18.53
2018-09-19T07:20:22.527Z,18.65
2018-09-19T07:22:51.384Z,18.76
2018-09-19T07:25:35.938Z,18.87
2018-09-19T07:28:11.227Z,18.98
2018-09-19T07:30:54.007Z,19.03
2018-09-19T07:33:21.996Z,19.14
2018-09-19T07:35:50.065Z,19.24
2018-09-19T07:38:18.145Z,19.32
2018-09-19T07:40:46.168Z,19.40
2018-09-19T07:43:14.283Z,19.54
2018-09-19T07:45:57.584Z,19.67
2018-09-19T07:48:25.785Z,19.80
2018-09-19T07:50:53.809Z,19.92
2018-09-19T07:53:32.887Z,20.10
2018-09-19T07:56:06.844Z,20.29
2018-09-19T07:58:34.868Z,20.48
2018-09-19T08:01:25.333Z,20.71
2018-09-19T08:04:10.086Z,20.97
2018-09-19T08:06:38.141Z,21.21
2018-09-19T08:09:07.304Z,21.40
2018-09-19T08:11:35.332Z,21.53
2018-09-19T08:14:03.372Z,21.63
2018-09-19T08:16:31.437Z,21.72
2018-09-19T08:18:59.472Z,21.80
2018-09-19T08:21:27.517Z,21.89
2018-09-19T08:23:55.559Z,21.98
2018-09-19T08:26:23.684Z,22.07
2018-09-19T08:28:51.751Z,22.22
2018-09-19T08:31:19.761Z,22.34
2018-09-19T08:33:47.804Z,22.51
2018-09-19T08:36:16.000Z,22.71
2018-09-19T08:38:44.357Z,22.89
2018-09-19T08:41:12.444Z,23.03
2018-09-19T08:43:40.561Z,23.08
2018-09-19T08:46:08.748Z,23.19
2018-09-19T08:48:36.816Z,23.33
2018-09-19T08:51:05.055Z,23.53
2018-09-19T08:53:33.375Z,23.68
2018-09-19T08:56:01.392Z,23.89
2018-09-19T08:58:29.816Z,24.12
2018-09-19T09:00:57.849Z,24.38
2018-09-19T09:03:26.013Z,24.62
2018-09-19T09:05:54.081Z,24.78
2018-09-19T09:08:22.149Z,24.91
2018-09-19T09:10:50.218Z,25.02
2018-09-19T09:13:18.278Z,25.19
2018-09-19T09:15:46.308Z,25.39
2018-09-19T09:18:14.331Z,25.63
2018-09-19T09:20:42.382Z,25.77
2018-09-19T09:23:10.421Z,25.82
2018-09-19T09:25:38.626Z,25.92
2018-09-19T09:28:06.815Z,26.02
2018-09-19T09:30:35.164Z,26.23
2018-09-19T09:33:03.507Z,26.35
2018-09-19T09:35:31.545Z,26.52
2018-09-19T09:37:59.564Z,26.68
2018-09-19T09:40:27.717Z,26.79
2018-09-19T09:42:55.669Z,26.83
2018-09-19T09:45:23.712Z,26.94
2018-09-19T09:47:51.749Z,26.96
2018-09-19T09:50:19.857Z,27.04
2018-09-19T09:52:48.042Z,27.15
2018-09-19T09:55:16.105Z,27.06
2018-09-19T09:57:44.179Z,26.97
2018-09-19T10:00:12.214Z,26.92
2018-09-19T10:02:40.256Z,26.80
2018-09-19T10:05:08.284Z,26.74
2018-09-19T10:07:36.321Z,26.77
2018-09-19T10:10:04.363Z,26.73
2018-09-19T10:12:32.417Z,26.56
2018-09-19T10:15:00.497Z,26.43
2018-09-19T10:17:28.564Z,26.23
2018-09-19T10:19:56.783Z,26.13
2018-09-19T10:22:24.825Z,26.06
2018-09-19T10:24:52.934Z,26.03
2018-09-19T10:27:20.968Z,26.04
2018-09-19T10:29:49.105Z,26.01
2018-09-19T10:32:17.357Z,25.91
2018-09-19T10:34:45.418Z,25.99
2018-09-19T10:37:13.460Z,25.99
2018-09-19T10:39:41.520Z,26.08
2018-09-19T10:42:09.662Z,26.19
2018-09-19T10:44:37.833Z,26.20
2018-09-19T10:47:05.997Z,26.23
2018-09-19T10:49:34.041Z,26.41
2018-09-19T10:52:02.022Z,26.75
2018-09-19T10:54:30.198Z,26.85
2018-09-19T10:56:58.484Z,27.03
2018-09-19T10:59:26.510Z,26.96
2018-09-19T11:01:54.589Z,26.92
2018-09-19T11:04:22.649Z,27.00
2018-09-19T11:06:50.828Z,26.91
2018-09-19T11:09:18.883Z,26.65
2018-09-19T11:11:46.914Z,26.44
2018-09-19T11:14:14.942Z,26.38
2018-09-19T11:16:42.990Z,26.32
2018-09-19T11:19:11.037Z,26.27
2018-09-19T11:21:39.081Z,26.27
2018-09-19T11:24:07.876Z,26.23
2018-09-19T11:26:35.925Z,26.25
2018-09-19T11:29:04.844Z,26.31
2018-09-19T11:31:32.881Z,26.50
2018-09-19T11:34:00.969Z,26.60
2018-09-19T11:36:28.999Z,26.83
2018-09-19T11:38:57.059Z,27.15
2018-09-19T11:41:25.080Z,27.33
2018-09-19T11:43:53.116Z,27.44
2018-09-19T11:46:21.180Z,27.59
2018-09-19T11:48:49.301Z,27.63
2018-09-19T11:51:17.273Z,27.74
2018-09-19T11:53:45.320Z,27.86
2018-09-19T11:56:13.363Z,27.76
2018-09-19T11:58:41.389Z,27.45
2018-09-19T12:01:09.451Z,27.20
2018-09-19T12:03:37.552Z,27.01
2018-09-19T12:06:05.595Z,26.97
2018-09-19T12:08:33.656Z,27.08
2018-09-19T12:11:01.697Z,27.22
2018-09-19T12:13:29.727Z,27.40
2018-09-19T12:15:57.792Z,27.59
2018-09-19T12:18:25.961Z,27.66
2018-09-19T12:20:54.012Z,27.77
2018-09-19T12:23:22.052Z,27.92
2018-09-19T12:25:50.120Z,28.02
2018-09-19T12:28:18.226Z,27.97
2018-09-19T12:30:46.265Z,27.92
2018-09-19T12:33:14.353Z,27.95
2018-09-19T12:35:42.364Z,28.00
2018-09-19T12:38:10.425Z,27.95
2018-09-19T12:40:38.514Z,28.00
2018-09-19T12:43:06.577Z,28.08
2018-09-19T12:45:34.688Z,27.98
2018-09-19T12:48:02.757Z,28.00
2018-09-19T12:50:30.834Z,28.02
2018-09-19T12:52:58.877Z,28.01
2018-09-19T12:55:26.920Z,28.11
2018-09-19T12:57:54.949Z,28.35
2018-09-19T13:00:22.994Z,28.58
2018-09-19T13:02:51.116Z,28.64
2018-09-19T13:05:19.262Z,28.54
2018-09-19T13:07:47.286Z,28.37
2018-09-19T13:10:15.334Z,28.31
2018-09-19T13:12:43.389Z,28.31
2018-09-19T13:15:11.415Z,28.29
2018-09-19T13:17:39.476Z,28.26
2018-09-19T13:20:07.572Z,28.21
2018-09-19T13:22:35.633Z,28.32
2018-09-19T13:25:03.893Z,28.36
2018-09-19T13:27:31.937Z,28.34
2018-09-19T13:30:00.049Z,28.37
2018-09-19T13:32:28.104Z,28.35
2018-09-19T13:34:56.180Z,28.36
2018-09-19T13:37:24.187Z,28.39
2018-09-19T13:39:52.256Z,28.42
2018-09-19T13:42:20.292Z,28.36
2018-09-19T13:44:48.334Z,28.35
2018-09-19T13:47:16.433Z,28.30
2018-09-19T13:49:47.985Z,28.21
2018-09-19T13:52:16.029Z,28.21
2018-09-19T13:54:44.068Z,28.25
2018-09-19T13:57:18.692Z,28.32
2018-09-19T13:59:46.741Z,28.28
2018-09-19T14:02:15.152Z,28.26
2018-09-19T14:04:43.177Z,28.32
2018-09-19T14:07:11.237Z,28.29
2018-09-19T14:09:39.312Z,28.31
2018-09-19T14:12:07.625Z,28.37
2018-09-19T14:14:35.628Z,28.34
2018-09-19T14:17:04.069Z,28.30
2018-09-19T14:19:32.113Z,28.25
2018-09-19T14:22:00.158Z,28.19
2018-09-19T14:24:28.212Z,28.05
2018-09-19T14:26:56.263Z,28.01
2018-09-19T14:29:24.321Z,28.04
2018-09-19T14:31:52.387Z,27.99
2018-09-19T14:34:20.488Z,27.92
2018-09-19T14:36:48.624Z,27.95
2018-09-19T14:39:16.657Z,27.96
2018-09-19T14:41:44.705Z,27.85
2018-09-19T14:44:12.738Z,27.84
2018-09-19T14:46:40.790Z,27.80
2018-09-19T14:49:08.817Z,27.79
2018-09-19T14:51:36.847Z,27.74
2018-09-19T14:54:05.070Z,27.72
2018-09-19T14:56:33.080Z,27.76
2018-09-19T14:59:01.147Z,27.76
2018-09-19T15:01:29.181Z,27.72
2018-09-19T15:03:57.213Z,27.75
2018-09-19T15:06:25.268Z,27.74
2018-09-19T15:08:53.325Z,27.68
2018-09-19T15:11:21.383Z,27.67
2018-09-19T15:13:49.448Z,27.63
2018-09-19T15:16:17.491Z,27.63
2018-09-19T15:18:45.561Z,27.61
2018-09-19T15:21:13.602Z,27.59
2018-09-19T15:23:41.653Z,27.53
2018-09-19T15:26:09.702Z,27.46
2018-09-19T15:28:37.793Z,27.44
2018-09-19T15:31:05.784Z,27.47
2018-09-19T15:33:33.900Z,27.51
2018-09-19T15:36:01.963Z,27.56
2018-09-19T15:38:30.010Z,27.51
2018-09-19T15:40:58.033Z,27.43
2018-09-19T15:43:26.109Z,27.37
2018-09-19T15:45:54.175Z,27.30
2018-09-19T15:48:22.413Z,27.21
2018-09-19T15:50:50.475Z,27.17
2018-09-19T15:53:18.518Z,27.12
2018-09-19T15:55:46.561Z,27.12
2018-09-19T15:58:14.595Z,27.05
2018-09-19T16:00:42.636Z,27.05
2018-09-19T16:03:10.734Z,27.01
2018-09-19T16:05:38.822Z,27.02
2018-09-19T16:08:06.843Z,27.00
2018-09-19T16:10:34.893Z,26.93
2018-09-19T16:13:02.924Z,26.89
2018-09-19T16:15:30.962Z,26.83
2018-09-19T16:17:59.249Z,26.72
2018-09-19T16:20:27.297Z,26.71
2018-09-19T16:22:55.774Z,26.68
2018-09-19T16:25:23.806Z,26.63
2018-09-19T16:27:51.829Z,26.62
2018-09-19T16:30:19.920Z,26.55
2018-09-19T16:32:47.965Z,26.44
2018-09-19T16:35:16.036Z,26.37
2018-09-19T16:37:44.069Z,26.27
2018-09-19T16:40:12.137Z,26.16
2018-09-19T16:42:40.198Z,26.07
2018-09-19T16:45:08.248Z,25.97
2018-09-19T16:47:36.295Z,25.92
2018-09-19T16:50:04.807Z,25.87
2018-09-19T16:52:32.897Z,25.82
2018-09-19T16:55:01.035Z,25.73
2018-09-19T16:57:29.093Z,25.65
2018-09-19T16:59:57.175Z,25.61
2018-09-19T17:02:25.232Z,25.53
2018-09-19T17:04:53.297Z,25.48
2018-09-19T17:07:21.383Z,25.40
2018-09-19T17:09:49.415Z,25.33
2018-09-19T17:12:17.471Z,25.27
2018-09-19T17:14:45.515Z,25.25
2018-09-19T17:17:13.575Z,25.21
2018-09-19T17:19:41.621Z,25.18
2018-09-19T17:22:09.765Z,25.10
2018-09-19T17:24:37.810Z,25.05
2018-09-19T17:27:05.844Z,25.02
2018-09-19T17:29:33.875Z,24.92
2018-09-19T17:32:01.921Z,24.87
2018-09-19T17:34:30.005Z,24.84
2018-09-19T17:36:58.046Z,24.76
2018-09-19T17:39:26.098Z,24.67
2018-09-19T17:41:54.150Z,24.58
2018-09-19T17:44:22.170Z,24.52
2018-09-19T17:46:50.212Z,24.42
2018-09-19T17:49:18.253Z,24.36
2018-09-19T17:51:46.317Z,24.30
2018-09-19T17:54:14.372Z,24.20
2018-09-19T17:56:42.401Z,24.16
2018-09-19T17:59:10.448Z,24.11
2018-09-19T18:01:38.568Z,24.08
2018-09-19T18:04:06.882Z,24.04
2018-09-19T18:06:34.996Z,23.97
2018-09-19T18:09:03.280Z,23.87
2018-09-19T18:11:31.316Z,23.79
2018-09-19T18:13:59.409Z,23.76
2018-09-19T18:16:27.436Z,23.70
2018-09-19T18:18:55.504Z,23.67
2018-09-19T18:21:23.570Z,23.60
2018-09-19T18:23:52.173Z,23.57
2018-09-19T18:26:20.232Z,23.57
2018-09-19T18:28:48.284Z,23.52
2018-09-19T18:31:16.363Z,23.50
2018-09-19T18:33:44.404Z,23.46
2018-09-19T18:36:12.461Z,23.45
2018-09-19T18:38:40.553Z,23.42
2018-09-19T18:41:08.609Z,23.37
2018-09-19T18:43:36.664Z,23.36
2018-09-19T18:46:04.928Z,23.34
2018-09-19T18:48:32.970Z,23.32
2018-09-19T18:51:01.428Z,23.26
2018-09-19T18:53:29.496Z,23.23
2018-09-19T18:55:57.535Z,23.17
2018-09-19T18:58:25.577Z,23.14
2018-09-19T19:00:53.622Z,23.08
2018-09-19T19:03:21.653Z,23.05
2018-09-19T19:05:49.672Z,23.02
2018-09-19T19:08:17.720Z,22.97
2018-09-19T19:10:45.773Z,22.93
2018-09-19T19:13:13.836Z,22.86
2018-09-19T19:15:42.319Z,22.81
2018-09-19T19:18:10.359Z,22.77
2018-09-19T19:20:38.576Z,22.70
2018-09-19T19:23:06.864Z,22.70
2018-09-19T19:25:34.956Z,22.67
2018-09-19T19:28:03.005Z,22.60
2018-09-19T19:30:31.373Z,22.59
2018-09-19T19:32:59.273Z,22.70
2018-09-19T19:35:27.291Z,22.70
2018-09-19T19:37:55.349Z,22.65
2018-09-19T19:40:23.336Z,22.61
2018-09-19T19:42:51.416Z,22.57
2018-09-19T19:45:19.429Z,22.57
2018-09-19T19:47:47.445Z,22.57
2018-09-19T19:50:15.543Z,22.53
2018-09-19T19:52:43.572Z,22.50
2018-09-19T19:55:11.632Z,22.47
2018-09-19T19:57:39.676Z,22.46
2018-09-19T20:00:07.700Z,22.43
2018-09-19T20:02:35.813Z,22.40
2018-09-19T20:05:04.932Z,22.39
2018-09-19T20:07:32.956Z,22.38
2018-09-19T20:10:00.998Z,22.37
2018-09-19T20:12:29.073Z,22.32
2018-09-19T20:14:57.050Z,22.29
2018-09-19T20:17:25.122Z,22.26
2018-09-19T20:19:53.298Z,22.22
2018-09-19T20:22:21.317Z,22.22
2018-09-19T20:24:49.364Z,22.22
2018-09-19T20:27:17.437Z,22.19
2018-09-19T20:29:45.463Z,22.17
2018-09-19T20:32:13.503Z,22.14
2018-09-19T20:34:41.512Z,22.11
2018-09-19T20:37:09.547Z,22.12
2018-09-19T20:39:37.588Z,22.13
2018-09-19T20:42:05.633Z,22.10
2018-09-19T20:44:33.700Z,22.09
2018-09-19T20:47:01.778Z,22.07
2018-09-19T20:49:29.745Z,22.01
2018-09-19T20:51:57.771Z,21.96
2018-09-19T20:54:25.787Z,21.94
2018-09-19T20:56:53.789Z,21.90
2018-09-19T20:59:21.824Z,21.87
2018-09-19T21:01:49.872Z,21.83
2018-09-19T21:04:17.939Z,21.82
2018-09-19T21:06:45.941Z,21.82
2018-09-19T21:09:13.972Z,21.80
2018-09-19T21:11:42.013Z,21.80
2018-09-19T21:14:10.043Z,21.79
2018-09-19T21:16:38.065Z,21.76
2018-09-19T21:19:06.089Z,21.74
2018-09-19T21:21:34.121Z,21.70
2018-09-19T21:24:02.150Z,21.66
2018-09-19T21:26:30.170Z,21.62
2018-09-19T21:28:58.193Z,21.56
2018-09-19T21:31:26.239Z,21.52
2018-09-19T21:33:54.383Z,21.49
2018-09-19T21:36:22.501Z,21.47
2018-09-19T21:38:50.611Z,21.46
2018-09-19T21:41:18.684Z,21.44
2018-09-19T21:43:46.735Z,21.42
2018-09-19T21:46:15.067Z,21.38
2018-09-19T21:48:43.117Z,21.35
2018-09-19T21:51:11.172Z,21.31
2018-09-19T21:53:39.245Z,21.28
2018-09-19T21:56:07.329Z,21.27
2018-09-19T21:58:35.463Z,21.25
2018-09-19T22:01:10.365Z,21.24
2018-09-19T22:03:40.073Z,21.23
2018-09-19T22:06:08.413Z,21.21
2018-09-19T22:08:37.407Z,21.22
2018-09-19T22:11:06.041Z,21.21
2018-09-19T22:13:34.150Z,21.18
2018-09-19T22:16:02.185Z,21.18
2018-09-19T22:18:30.332Z,21.16
2018-09-19T22:20:58.395Z,21.12
2018-09-19T22:23:26.480Z,21.09
2018-09-19T22:25:54.532Z,21.06
2018-09-19T22:28:22.600Z,21.06
2018-09-19T22:30:51.069Z,21.05
2018-09-19T22:33:19.110Z,21.02
2018-09-19T22:35:47.206Z,21.01
2018-09-19T22:38:21.898Z,21.00
2018-09-19T22:40:50.064Z,21.03
2018-09-19T22:43:18.190Z,21.01
2018-09-19T22:45:46.409Z,21.01
2018-09-19T22:48:14.583Z,21.00
2018-09-19T22:50:42.651Z,20.98
2018-09-19T22:53:10.852Z,20.95
2018-09-19T22:55:38.953Z,20.94
2018-09-19T22:58:07.063Z,20.91
2018-09-19T23:00:35.093Z,20.88
2018-09-19T23:03:03.186Z,20.85
2018-09-19T23:05:31.300Z,20.83
2018-09-19T23:07:59.383Z,20.80
2018-09-19T23:10:27.445Z,20.80
2018-09-19T23:12:55.498Z,20.77
2018-09-19T23:15:23.553Z,20.74
2018-09-19T23:17:51.589Z,20.76
2018-09-19T23:20:19.660Z,20.76
2018-09-19T23:22:47.716Z,20.75
2018-09-19T23:25:15.754Z,20.76
2018-09-19T23:27:43.840Z,20.73
2018-09-19T23:30:11.905Z,20.70
2018-09-19T23:32:39.992Z,20.66
2018-09-19T23:35:08.040Z,20.57
2018-09-19T23:37:36.105Z,20.58
2018-09-19T23:40:05.132Z,20.56
2018-09-19T23:42:33.205Z,20.56
2018-09-19T23:45:01.421Z,20.51
2018-09-19T23:47:29.527Z,20.51
2018-09-19T23:49:57.549Z,20.49
2018-09-19T23:52:25.628Z,20.44
2018-09-19T23:54:53.661Z,20.45
2018-09-19T23:57:21.668Z,20.43
2018-09-19T23:59:49.892Z,20.42
